Terminal Aerodrome Forecast
Issued by NWS

Current Version | Previous Version | Text Only | Print | Product List | Glossary On
Versions: 1 2 3 4 5 6 7 8 9 10 11 12 13 14 15 16 17 18 19 20 21 22 23 24 25 26 27 28 29
000
FTUS43 KDMX 301722
TAFFOD
TAF
KFOD 301722Z 3018/0118 06016G22KT 3SM RA SCT004 BKN008
     FM302000 06012G19KT 6SM BR VCSH SCT006 OVC010
     FM010000 05010KT 5SM BR OVC010
     FM010900 04008KT 3SM BR VCSH SCT004 OVC006=

USA.gov is the U.S. government's official web portal to all federal, state and local government web resources and services.